Time;durP1;ratioP1;P1;durP2;ratioP2;P2;SDS_P1;SDS_P2;PMS_P1;PMS_P2;Temp;Humidity;BMP_temperature;BMP_pressure;BME280_temperature;BME280_humidity;BME280_pressure;Samples;Min_cycle;Max_cycle;Signal;HPM_P1;HPM_P2
2022/03/25 00:00:27;;;;;;;40.33;29.40;;;;;;;6.30;56.68;101569.53;5041905;28;20055;-49
2022/03/25 00:02:55;;;;;;;38.85;28.10;;;;;;;6.25;56.92;101568.63;5047335;28;20060;-49
2022/03/25 00:05:22;;;;;;;40.33;29.38;;;;;;;6.26;56.69;101564.78;5053446;28;20056;-49
2022/03/25 00:07:49;;;;;;;38.00;27.55;;;;;;;6.22;57.07;101572.75;5052533;28;20112;-53
2022/03/25 00:10:17;;;;;;;39.30;28.42;;;;;;;6.17;57.21;101564.38;5039585;28;20056;-52
2022/03/25 00:12:44;;;;;;;39.88;28.38;;;;;;;6.15;56.78;101568.50;5037527;28;20053;-51
2022/03/25 00:15:11;;;;;;;38.50;27.58;;;;;;;6.12;57.27;101561.56;5034619;28;20505;-50
2022/03/25 00:17:40;;;;;;;37.28;27.13;;;;;;;6.07;56.60;101559.56;5052397;28;20056;-50
2022/03/25 00:20:09;;;;;;;39.83;28.58;;;;;;;6.03;57.30;101561.19;5052306;28;20063;-50
2022/03/25 00:22:37;;;;;;;42.30;29.77;;;;;;;5.97;57.43;101564.16;5047716;28;20053;-50
2022/03/25 00:25:05;;;;;;;39.75;29.25;;;;;;;5.93;57.60;101557.41;5033910;28;20056;-51
2022/03/25 00:27:33;;;;;;;41.80;28.58;;;;;;;5.91;58.03;101563.19;5037581;28;20382;-50
2022/03/25 00:30:00;;;;;;;41.30;29.80;;;;;;;5.89;57.33;101563.44;5040250;28;20049;-51
2022/03/25 00:32:27;;;;;;;45.28;31.10;;;;;;;5.88;57.29;101564.56;5032615;28;20128;-49
2022/03/25 00:34:56;;;;;;;56.35;34.13;;;;;;;5.86;57.34;101560.38;5032348;28;20062;-49
2022/03/25 00:37:25;;;;;;;50.43;33.70;;;;;;;5.84;57.31;101568.09;5032805;28;20083;-51
2022/03/25 00:39:53;;;;;;;55.08;32.38;;;;;;;5.79;58.11;101562.47;5032373;28;20053;-48
2022/03/25 00:42:20;;;;;;;50.80;32.60;;;;;;;5.77;57.89;101561.91;5033903;28;20049;-49
2022/03/25 00:44:47;;;;;;;48.88;32.15;;;;;;;5.76;57.88;101560.25;5031928;28;20493;-50
2022/03/25 00:47:15;;;;;;;44.28;28.83;;;;;;;5.70;58.32;101564.84;5032417;28;20046;-49
2022/03/25 00:49:43;;;;;;;42.45;29.27;;;;;;;5.68;58.19;101559.56;5042737;28;20045;-48
2022/03/25 00:52:11;;;;;;;45.90;28.27;;;;;;;5.65;58.55;101559.25;5052122;28;20056;-49
2022/03/25 00:54:39;;;;;;;45.35;30.20;;;;;;;5.63;58.12;101564.22;5050887;28;20057;-49
2022/03/25 00:57:09;;;;;;;43.50;30.08;;;;;;;5.63;58.41;101558.69;5049315;28;20056;-49
2022/03/25 00:59:37;;;;;;;44.47;30.38;;;;;;;5.61;58.07;101547.03;5051925;28;20064;-52
2022/03/25 01:02:04;;;;;;;45.90;31.63;;;;;;;5.60;58.33;101553.66;5051449;28;20057;-51
2022/03/25 01:04:32;;;;;;;43.67;31.08;;;;;;;5.54;58.55;101552.72;5035012;28;20049;-48
2022/03/25 01:06:59;;;;;;;46.42;31.92;;;;;;;5.50;58.79;101546.03;5051282;28;20053;-50
2022/03/25 01:09:28;;;;;;;44.90;31.83;;;;;;;5.49;58.54;101550.72;5051843;28;20060;-52
2022/03/25 01:11:55;;;;;;;46.10;31.10;;;;;;;5.48;58.45;101554.59;5035521;28;20049;-51
2022/03/25 01:14:23;;;;;;;55.03;31.88;;;;;;;5.42;59.20;101549.25;5042380;28;21685;-50
2022/03/25 01:16:50;;;;;;;46.95;31.02;;;;;;;5.39;59.09;101552.50;5047764;28;20045;-49
2022/03/25 01:19:17;;;;;;;41.63;29.00;;;;;;;5.37;59.38;101552.75;5047699;28;20049;-49
2022/03/25 01:21:44;;;;;;;42.00;29.17;;;;;;;5.35;59.53;101554.09;5032895;28;20061;-51
2022/03/25 01:24:12;;;;;;;44.20;29.42;;;;;;;5.34;59.61;101550.50;5044516;28;20061;-49
2022/03/25 01:26:40;;;;;;;39.92;28.10;;;;;;;5.32;59.84;101549.94;5045221;28;20170;-52
2022/03/25 01:29:08;;;;;;;45.85;29.73;;;;;;;5.34;59.17;101546.91;5033872;28;20053;-49
2022/03/25 01:31:35;;;;;;;45.58;31.45;;;;;;;5.30;59.64;101552.09;5050803;28;20060;-48
2022/03/25 01:34:03;;;;;;;40.95;30.38;;;;;;;5.27;59.73;101549.81;5051021;28;20048;-49
2022/03/25 01:36:31;;;;;;;44.58;31.00;;;;;;;5.23;59.69;101555.03;5052129;28;20057;-50
2022/03/25 01:38:59;;;;;;;44.00;30.77;;;;;;;5.21;59.70;101554.47;5055157;28;20057;-49
2022/03/25 01:41:27;;;;;;;43.88;30.77;;;;;;;5.19;59.87;101542.81;5054465;28;20374;-54
2022/03/25 01:43:57;;;;;;;47.42;32.60;;;;;;;5.18;59.62;101540.31;5055260;28;20059;-49
2022/03/25 01:46:25;;;;;;;47.13;32.00;;;;;;;5.17;59.53;101539.47;5039125;28;20512;-51
2022/03/25 01:48:52;;;;;;;46.55;31.35;;;;;;;5.13;59.69;101546.59;5054996;28;20052;-48
2022/03/25 01:51:24;;;;;;;44.65;31.13;;;;;;;5.11;59.78;101536.88;5055731;28;20053;-53
2022/03/25 01:53:51;;;;;;;48.08;31.80;;;;;;;5.04;60.01;101542.56;5044973;28;20076;-48
2022/03/25 01:56:22;;;;;;;46.15;31.83;;;;;;;5.04;60.03;101550.84;5046237;28;20489;-49
2022/03/25 01:58:50;;;;;;;43.97;30.77;;;;;;;4.99;59.71;101540.56;5052297;28;20068;-51
2022/03/25 02:01:19;;;;;;;44.42;30.67;;;;;;;4.99;59.87;101553.53;5055402;28;20132;-51
2022/03/25 02:03:47;;;;;;;44.28;31.13;;;;;;;4.95;60.52;101555.94;5035151;28;20399;-51
2022/03/25 02:06:14;;;;;;;40.70;29.10;;;;;;;4.95;60.04;101549.59;5035760;28;20060;-51
2022/03/25 02:08:42;;;;;;;41.80;29.25;;;;;;;4.94;60.27;101550.69;5034614;28;20050;-49
2022/03/25 02:11:11;;;;;;;43.58;27.58;;;;;;;4.93;60.24;101549.00;5042503;28;20049;-50
2022/03/25 02:13:38;;;;;;;42.03;29.33;;;;;;;4.92;60.27;101552.88;5054510;28;20505;-51
2022/03/25 02:16:07;;;;;;;43.25;30.83;;;;;;;4.87;60.96;101545.31;5054833;28;20057;-51
2022/03/25 02:18:36;;;;;;;39.77;28.33;;;;;;;4.87;60.71;101548.06;5053221;28;20057;-49
2022/03/25 02:21:04;;;;;;;42.92;29.35;;;;;;;4.84;60.78;101545.81;5054829;28;20497;-53
2022/03/25 02:23:35;;;;;;;47.17;30.02;;;;;;;4.83;61.05;101544.13;5054576;28;20049;-52
2022/03/25 02:26:05;;;;;;;45.80;30.20;;;;;;;4.80;60.94;101544.66;5053841;28;20045;-49
2022/03/25 02:28:33;;;;;;;42.97;30.30;;;;;;;4.79;60.72;101543.81;5042309;28;20054;-52
2022/03/25 02:31:00;;;;;;;40.42;28.02;;;;;;;4.78;60.72;101542.13;5034868;28;20061;-50
2022/03/25 02:33:27;;;;;;;45.63;29.52;;;;;;;4.80;60.47;101539.97;5051440;28;20053;-50
2022/03/25 02:35:55;;;;;;;43.20;28.27;;;;;;;4.75;60.90;101541.81;5054584;28;20057;-49
2022/03/25 02:38:26;;;;;;;43.40;28.15;;;;;;;4.74;60.80;101542.88;5054380;28;20052;-50
2022/03/25 02:40:55;;;;;;;44.58;31.27;;;;;;;4.71;61.06;101541.47;5052448;28;20048;-51
2022/03/25 02:43:22;;;;;;;44.38;29.02;;;;;;;4.68;61.28;101547.47;5053823;28;20063;-49
2022/03/25 02:45:49;;;;;;;41.35;31.52;;;;;;;4.63;61.16;101550.97;5053915;28;20049;-50
2022/03/25 02:48:19;;;;;;;44.75;31.15;;;;;;;4.62;61.56;101545.69;5053637;28;20052;-51
2022/03/25 02:50:47;;;;;;;42.22;29.88;;;;;;;4.60;61.30;101547.88;5053902;28;20417;-50
2022/03/25 02:53:18;;;;;;;41.40;28.77;;;;;;;4.59;61.42;101544.28;5051034;28;20045;-53
2022/03/25 02:55:49;;;;;;;41.97;28.70;;;;;;;4.60;61.14;101545.97;5054010;28;20056;-54
2022/03/25 02:58:18;;;;;;;41.25;28.95;;;;;;;4.58;61.11;101544.56;5053762;28;20060;-51
2022/03/25 03:00:46;;;;;;;42.05;30.30;;;;;;;4.53;61.25;101544.44;5051928;28;20444;-52
2022/03/25 03:03:13;;;;;;;43.45;28.98;;;;;;;4.54;61.61;101541.44;5033940;28;20064;-50
2022/03/25 03:05:41;;;;;;;42.85;29.27;;;;;;;4.54;61.79;101546.13;5034514;28;20494;-52
2022/03/25 03:08:09;;;;;;;42.00;28.02;;;;;;;4.53;61.81;101559.06;5041880;28;20053;-48
2022/03/25 03:10:36;;;;;;;41.25;28.05;;;;;;;4.53;61.27;101559.06;5034203;28;20049;-50
2022/03/25 03:13:06;;;;;;;41.50;28.40;;;;;;;4.48;61.41;101550.69;5051151;28;20052;-50
2022/03/25 03:15:36;;;;;;;43.15;29.50;;;;;;;4.45;61.71;101554.81;5046258;28;20056;-48
2022/03/25 03:18:04;;;;;;;42.47;28.08;;;;;;;4.44;61.99;101566.06;5039422;28;20402;-50
2022/03/25 03:20:32;;;;;;;41.03;28.05;;;;;;;4.38;61.67;101565.13;5038118;28;20413;-48
2022/03/25 03:23:02;;;;;;;42.05;28.95;;;;;;;4.38;62.03;101572.56;5048618;28;20045;-50
2022/03/25 03:25:29;;;;;;;;;;;;;;;4.34;62.12;101563.94;5034455;28;20049;-48
2022/03/25 03:27:58;;;;;;;42.60;28.00;;;;;;;4.32;61.61;101571.63;5049302;28;19928;-50
2022/03/25 03:30:26;;;;;;;39.65;27.25;;;;;;;4.28;62.24;101573.19;5049584;28;20061;-54
2022/03/25 03:32:57;;;;;;;41.80;28.67;;;;;;;4.30;61.89;101571.03;5051136;28;20048;-49
2022/03/25 03:35:25;;;;;;;40.53;27.42;;;;;;;4.26;61.80;101578.13;5033720;28;20053;-49
2022/03/25 03:37:54;;;;;;;44.22;28.42;;;;;;;4.26;61.67;101580.88;5033268;28;20052;-49
2022/03/25 03:40:22;;;;;;;41.85;27.38;;;;;;;4.26;62.30;101580.88;5038499;28;20061;-49
2022/03/25 03:42:49;;;;;;;42.15;28.90;;;;;;;4.26;62.24;101580.88;5051830;28;20052;-50
2022/03/25 03:45:17;;;;;;;44.42;28.67;;;;;;;4.22;62.17;101583.31;5053019;28;20398;-52
2022/03/25 03:47:48;;;;;;;43.10;28.33;;;;;;;4.18;61.82;101579.38;5053228;28;20056;-50
2022/03/25 03:50:20;;;;;;;41.50;27.08;;;;;;;4.18;62.27;101579.38;5042425;28;20049;-51
2022/03/25 03:52:48;;;;;;;38.95;27.27;;;;;;;4.19;62.00;101580.19;5033016;28;20056;-49
2022/03/25 03:55:16;;;;;;;41.38;28.45;;;;;;;4.19;62.47;101577.44;5032980;28;20053;-49
2022/03/25 03:57:44;;;;;;;39.30;27.10;;;;;;;4.14;62.67;101574.59;5045348;28;20441;-51
2022/03/25 04:00:15;;;;;;;43.97;27.90;;;;;;;4.14;62.55;101577.34;5051212;28;20049;-51
2022/03/25 04:02:44;;;;;;;37.85;26.52;;;;;;;4.09;62.19;101579.97;5032432;28;20490;-49
2022/03/25 04:05:12;;;;;;;40.85;27.45;;;;;;;4.02;62.25;101583.72;5051929;28;20064;-48
2022/03/25 04:07:49;;;;;;;42.33;27.77;;;;;;;4.01;62.44;101583.94;5034209;28;20064;-50
2022/03/25 04:10:18;;;;;;;39.28;27.25;;;;;;;3.99;62.88;101586.97;5032913;28;20402;-49
2022/03/25 04:12:45;;;;;;;43.30;30.02;;;;;;;3.95;63.14;101588.53;5044347;28;20060;-51
2022/03/25 04:15:15;;;;;;;43.63;29.15;;;;;;;3.93;62.50;101593.44;5033082;28;20053;-48
2022/03/25 04:17:44;;;;;;;;;;;;;;;3.86;63.37;101590.81;5033210;28;20060;-49
2022/03/25 04:20:14;;;;;;;43.17;28.67;;;;;;;3.83;62.84;101588.53;5039770;28;19927;-53
2022/03/25 04:22:41;;;;;;;40.67;27.13;;;;;;;3.84;62.60;101578.34;5052271;28;20053;-49
2022/03/25 04:25:10;;;;;;;40.80;28.67;;;;;;;3.83;63.02;101585.78;5051224;28;20140;-48
2022/03/25 04:27:48;;;;;;;42.50;30.73;;;;;;;3.81;63.01;101582.44;5051720;28;20056;-50
2022/03/25 04:30:18;;;;;;;46.50;32.35;;;;;;;3.78;63.58;101585.69;5044767;28;20100;-49
2022/03/25 04:32:45;;;;;;;;;;;;;;;3.73;63.98;101587.47;5044887;28;20056;-50
2022/03/25 04:35:13;;;;;;;46.03;31.02;;;;;;;3.71;63.51;101586.88;5052356;28;19921;-49
2022/03/25 04:37:41;;;;;;;46.65;31.08;;;;;;;3.69;63.76;101589.03;5052239;28;20053;-51
2022/03/25 04:40:11;;;;;;;47.35;31.40;;;;;;;3.71;63.73;101592.38;5050179;28;20481;-52
2022/03/25 04:42:38;;;;;;;46.40;31.95;;;;;;;3.66;63.99;101585.69;5051102;28;20041;-48
2022/03/25 04:45:07;;;;;;;46.92;30.40;;;;;;;3.69;63.61;101589.88;5043796;28;20050;-51
2022/03/25 04:47:34;;;;;;;44.88;30.08;;;;;;;3.64;63.79;101589.75;5032419;28;20049;-49
2022/03/25 04:50:01;;;;;;;42.05;28.75;;;;;;;3.64;63.71;101585.09;5032273;28;20045;-53
2022/03/25 04:52:28;;;;;;;38.45;27.05;;;;;;;3.65;62.70;101586.78;5034089;28;20053;-52
2022/03/25 04:54:55;;;;;;;38.97;26.08;;;;;;;3.63;63.07;101594.44;5036247;28;20402;-52
2022/03/25 04:57:25;;;;;;;40.72;27.85;;;;;;;3.61;63.06;101595.75;5050879;28;20056;-49
2022/03/25 04:59:52;;;;;;;36.92;25.48;;;;;;;3.57;63.18;101592.66;5051934;28;20378;-50
2022/03/25 05:02:20;;;;;;;41.95;28.67;;;;;;;3.54;62.87;101590.34;5035077;28;20062;-48
2022/03/25 05:04:47;;;;;;;41.70;27.88;;;;;;;3.53;63.75;101585.94;5046125;28;20057;-48
2022/03/25 05:07:23;;;;;;;43.03;27.65;;;;;;;3.55;64.07;101594.81;5042939;28;20409;-49
2022/03/25 05:09:51;;;;;;;39.45;26.92;;;;;;;3.56;63.44;101587.38;5045351;28;20045;-48
2022/03/25 05:12:18;;;;;;;41.15;27.48;;;;;;;3.52;63.92;101598.03;5040189;28;20060;-51
2022/03/25 05:14:47;;;;;;;41.50;26.85;;;;;;;3.52;63.60;101599.94;5057330;28;20045;-50
2022/03/25 05:17:14;;;;;;;40.30;26.48;;;;;;;3.51;64.36;101595.50;5046022;28;20044;-48
2022/03/25 05:19:42;;;;;;;40.85;26.65;;;;;;;3.51;64.51;101604.63;5054508;28;20057;-50
2022/03/25 05:22:09;;;;;;;46.30;28.90;;;;;;;3.51;64.42;101607.38;5055912;28;20417;-49
2022/03/25 05:24:37;;;;;;;41.65;27.13;;;;;;;3.54;64.74;101606.88;5038644;28;20494;-49
2022/03/25 05:27:04;;;;;;;39.95;27.90;;;;;;;3.58;65.02;101604.50;5038770;28;20053;-50
2022/03/25 05:29:32;;;;;;;43.88;27.65;;;;;;;3.59;64.79;101604.25;5057288;28;20048;-48
2022/03/25 05:32:01;;;;;;;43.85;28.38;;;;;;;3.63;65.22;101599.97;5057868;28;20075;-49
2022/03/25 05:34:28;;;;;;;43.00;29.45;;;;;;;3.68;65.35;101609.41;5058430;28;20060;-53
2022/03/25 05:36:56;;;;;;;48.50;30.38;;;;;;;3.70;65.30;101604.50;5042146;28;20418;-48
2022/03/25 05:39:23;;;;;;;47.00;29.98;;;;;;;3.72;64.60;101605.94;5046967;28;20079;-49
2022/03/25 05:41:50;;;;;;;44.78;30.17;;;;;;;3.75;64.99;101608.19;5054444;28;20056;-52
2022/03/25 05:44:18;;;;;;;45.45;29.98;;;;;;;3.77;64.45;101603.28;5053643;28;20056;-48
2022/03/25 05:46:47;;;;;;;49.15;32.17;;;;;;;3.79;64.79;101601.13;5038983;28;20049;-50
2022/03/25 05:49:15;;;;;;;46.72;30.95;;;;;;;3.87;64.79;101599.94;5053253;28;20053;-52
2022/03/25 05:51:43;;;;;;;50.13;30.08;;;;;;;3.93;63.93;101603.66;5038292;28;20057;-48
2022/03/25 05:54:11;;;;;;;44.30;29.52;;;;;;;3.97;63.53;101605.66;5046375;28;20080;-48
2022/03/25 05:56:39;;;;;;;45.95;31.67;;;;;;;4.02;63.07;101610.44;5048065;28;20044;-50
2022/03/25 05:59:06;;;;;;;50.50;30.75;;;;;;;4.07;62.95;101614.16;5047697;28;20481;-48
2022/03/25 06:01:33;;;;;;;48.80;32.72;;;;;;;4.10;62.78;101609.25;5053303;28;20049;-50
2022/03/25 06:04:01;;;;;;;49.00;32.38;;;;;;;4.15;63.06;101617.59;5039413;28;20045;-48
2022/03/25 06:06:30;;;;;;;46.67;33.22;;;;;;;4.23;62.96;101620.81;5041814;28;20055;-48
2022/03/25 06:08:57;;;;;;;45.33;30.55;;;;;;;4.33;62.75;101620.22;5052685;28;20458;-48
2022/03/25 06:11:24;;;;;;;43.05;29.65;;;;;;;4.41;62.38;101619.81;5048490;28;20057;-48
2022/03/25 06:13:52;;;;;;;47.03;30.92;;;;;;;4.51;62.58;101621.09;5039288;28;20072;-51
2022/03/25 06:16:20;;;;;;;44.70;30.15;;;;;;;4.59;62.44;101623.47;5048801;28;20049;-50
2022/03/25 06:18:47;;;;;;;46.33;31.90;;;;;;;4.69;61.92;101623.66;5044450;28;20057;-51
2022/03/25 06:21:16;;;;;;;43.35;30.08;;;;;;;4.79;61.88;101629.38;5048871;28;20068;-48
2022/03/25 06:23:45;;;;;;;43.78;29.58;;;;;;;4.93;61.53;101624.38;5038277;28;20076;-52
2022/03/25 06:26:12;;;;;;;41.75;30.38;;;;;;;5.02;61.08;101617.38;5051447;28;20053;-49
2022/03/25 06:28:40;;;;;;;41.22;28.50;;;;;;;5.14;61.05;101625.56;5052419;28;20060;-48
2022/03/25 06:31:08;;;;;;;39.05;27.38;;;;;;;5.28;60.86;101624.16;5052272;28;20375;-51
2022/03/25 06:33:37;;;;;;;44.47;30.45;;;;;;;5.45;60.89;101624.16;5054268;28;20049;-49
2022/03/25 06:36:05;;;;;;;40.43;29.77;;;;;;;5.57;60.76;101635.13;5054531;28;20446;-50
2022/03/25 06:38:32;;;;;;;41.33;28.02;;;;;;;5.72;60.26;101620.72;5053666;28;20056;-48
2022/03/25 06:41:03;;;;;;;40.60;28.00;;;;;;;5.89;59.84;101626.22;5045427;28;20046;-49
2022/03/25 06:43:30;;;;;;;42.67;29.45;;;;;;;5.98;59.53;101624.69;5042876;28;20053;-48
2022/03/25 06:45:59;;;;;;;39.22;27.88;;;;;;;6.14;58.60;101633.22;5046690;28;20049;-53
2022/03/25 06:48:27;;;;;;;40.92;28.77;;;;;;;6.25;58.64;101623.97;5053304;28;20064;-50
2022/03/25 06:50:56;;;;;;;42.20;29.92;;;;;;;6.36;58.26;101628.53;5038233;28;20524;-51
2022/03/25 06:53:23;;;;;;;40.15;29.80;;;;;;;6.52;58.07;101621.25;5042408;28;20061;-51
2022/03/25 06:55:51;;;;;;;44.13;31.38;;;;;;;6.70;57.91;101622.84;5052340;28;20063;-49
2022/03/25 06:58:21;;;;;;;41.65;30.50;;;;;;;6.87;56.99;101631.06;5044014;28;20076;-50
2022/03/25 07:00:49;;;;;;;41.15;32.03;;;;;;;7.07;57.55;101638.72;5038587;28;20045;-50
2022/03/25 07:03:18;;;;;;;41.10;29.55;;;;;;;7.26;57.04;101634.47;5053336;28;20052;-49
2022/03/25 07:05:46;;;;;;;41.33;28.05;;;;;;;7.80;55.94;101629.91;5045432;28;20049;-48
2022/03/25 07:08:14;;;;;;;40.33;26.33;;;;;;;8.57;54.91;101635.84;5050971;28;20049;-49
2022/03/25 07:10:42;;;;;;;37.28;27.95;;;;;;;9.24;52.19;101640.47;5046469;28;20045;-52
2022/03/25 07:13:10;;;;;;;42.50;29.05;;;;;;;10.27;49.82;101629.19;5034660;28;20056;-49
2022/03/25 07:15:39;;;;;;;39.35;27.48;;;;;;;11.28;48.42;101626.16;5038854;28;20076;-51
2022/03/25 07:18:07;;;;;;;34.63;27.33;;;;;;;12.29;45.63;101631.06;5052998;28;20053;-51
2022/03/25 07:20:34;;;;;;;38.45;30.65;;;;;;;13.33;42.75;101632.13;5051710;28;20052;-49
2022/03/25 07:23:02;;;;;;;38.95;29.80;;;;;;;14.31;40.98;101626.41;5053074;28;20508;-50
2022/03/25 07:25:31;;;;;;;34.65;27.92;;;;;;;15.30;38.50;101623.94;5040775;28;20054;-51
2022/03/25 07:27:58;;;;;;;36.15;27.25;;;;;;;15.96;36.92;101635.50;5046696;28;20390;-51
2022/03/25 07:30:25;;;;;;;32.65;26.48;;;;;;;16.73;35.26;101629.63;5047731;28;20052;-51
2022/03/25 07:32:57;;;;;;;33.47;28.50;;;;;;;17.51;33.70;101629.69;5049029;28;20075;-50
2022/03/25 07:35:25;;;;;;;36.10;28.85;;;;;;;18.23;32.75;101638.50;5049671;28;20431;-49
2022/03/25 07:37:53;;;;;;;32.10;28.38;;;;;;;18.83;31.31;101642.16;5048754;28;20140;-50
2022/03/25 07:40:22;;;;;;;31.10;27.15;;;;;;;19.62;30.50;101633.88;5045873;28;20056;-49
2022/03/25 07:42:49;;;;;;;31.95;26.55;;;;;;;20.14;29.13;101629.66;5044267;28;20050;-50
2022/03/25 07:45:17;;;;;;;32.17;27.48;;;;;;;20.71;28.23;101637.28;5048791;28;20053;-51
2022/03/25 07:47:46;;;;;;;36.45;29.88;;;;;;;21.27;27.48;101636.53;5048325;28;20053;-52
2022/03/25 07:50:16;;;;;;;30.33;26.80;;;;;;;21.86;27.47;101638.69;5048093;28;20064;-54
2022/03/25 07:52:52;;;;;;;32.63;29.25;;;;;;;22.48;26.86;101643.94;5031593;28;20061;-50
2022/03/25 07:55:20;;;;;;;31.48;28.10;;;;;;;22.98;25.47;101645.13;5046765;28;20056;-53
2022/03/25 07:57:49;;;;;;;30.50;27.08;;;;;;;23.55;25.17;101641.91;5050801;28;20059;-50
2022/03/25 08:00:20;;;;;;;31.17;27.80;;;;;;;24.11;24.33;101641.41;5042025;28;20041;-51
2022/03/25 08:02:51;;;;;;;33.20;29.50;;;;;;;24.59;23.42;101643.84;5031138;28;20413;-51
2022/03/25 08:05:20;;;;;;;34.15;29.65;;;;;;;25.00;23.04;101639.19;5043440;28;20050;-51
2022/03/25 08:07:49;;;;;;;30.35;27.25;;;;;;;25.50;22.82;101633.34;5045277;28;20049;-52
2022/03/25 08:10:18;;;;;;;31.83;27.92;;;;;;;25.94;22.18;101641.22;5050982;28;20477;-51
2022/03/25 08:12:45;;;;;;;;;;;;;;;26.07;21.68;101636.03;5050614;28;20052;-52
2022/03/25 08:15:13;;;;;;;33.50;29.98;;;;;;;26.76;21.50;101643.97;5041447;28;19951;-54
2022/03/25 08:17:50;;;;;;;32.17;28.83;;;;;;;27.31;20.80;101643.09;5050703;28;20057;-55
2022/03/25 08:20:24;;;;;;;32.13;27.88;;;;;;;27.44;20.36;101641.50;5040022;28;20051;-54
2022/03/25 08:22:52;;;;;;;29.50;26.60;;;;;;;28.05;20.01;101643.75;5046034;28;20510;-50
2022/03/25 08:28:05;;;;;;;28.80;26.05;;;;;;;28.45;19.52;101656.06;5043835;28;20057;-51
2022/03/25 08:30:33;;;;;;;32.25;29.00;;;;;;;28.91;19.38;101653.16;5043696;28;20064;-55
2022/03/25 08:33:03;;;;;;;30.38;27.17;;;;;;;29.82;18.03;101651.66;5031553;28;20049;-55
2022/03/25 08:35:32;;;;;;;32.83;28.10;;;;;;;30.35;17.87;101650.47;5047306;28;20382;-54
2022/03/25 08:38:00;;;;;;;29.90;26.83;;;;;;;30.83;17.18;101656.63;5046144;28;20505;-53
2022/03/25 08:40:30;;;;;;;28.55;24.80;;;;;;;31.23;16.63;101662.81;5049796;28;20401;-54
2022/03/25 08:42:57;;;;;;;29.67;26.77;;;;;;;31.45;16.92;101658.41;5046505;28;20140;-50
2022/03/25 08:45:26;;;;;;;27.30;24.45;;;;;;;31.99;16.11;101660.59;5042833;28;20044;-51
2022/03/25 08:47:53;;;;;;;29.08;26.13;;;;;;;32.46;16.34;101656.94;5034698;28;20068;-52
2022/03/25 08:50:22;;;;;;;30.83;27.65;;;;;;;33.11;15.23;101656.63;5033486;28;20053;-54
2022/03/25 08:52:52;;;;;;;30.02;27.08;;;;;;;33.29;14.89;101653.41;5033428;28;20044;-52
2022/03/25 08:55:21;;;;;;;29.98;26.85;;;;;;;33.74;14.60;101659.44;5038193;28;20564;-55
2022/03/25 08:57:49;;;;;;;30.63;27.67;;;;;;;34.25;14.00;101659.13;5044621;28;20493;-55
2022/03/25 09:00:21;;;;;;;29.35;26.55;;;;;;;34.34;13.80;101656.41;5040107;28;20068;-52
2022/03/25 09:02:48;;;;;;;30.75;27.60;;;;;;;34.78;14.03;101664.00;5037454;28;20056;-52
2022/03/25 09:05:17;;;;;;;31.35;27.90;;;;;;;35.08;13.54;101669.34;5036177;28;20144;-54
2022/03/25 09:07:45;;;;;;;29.73;26.80;;;;;;;35.48;13.08;101663.25;5048025;28;20061;-53
2022/03/25 09:10:16;;;;;;;27.52;24.65;;;;;;;35.82;13.25;101664.72;5043480;28;20481;-54
2022/03/25 09:12:45;;;;;;;28.67;25.80;;;;;;;36.00;12.56;101654.66;5038962;28;20415;-56
2022/03/25 09:15:14;;;;;;;27.10;24.60;;;;;;;36.56;12.22;101660.66;5035393;28;20071;-53
2022/03/25 09:17:43;;;;;;;26.25;23.65;;;;;;;36.74;12.77;101660.03;5033414;28;20506;-55
2022/03/25 09:20:15;;;;;;;25.48;22.83;;;;;;;36.99;12.02;101658.31;5035864;28;20053;-53
2022/03/25 09:22:43;;;;;;;24.45;22.08;;;;;;;37.23;11.59;101660.78;5046427;28;20049;-50
2022/03/25 09:25:13;;;;;;;23.52;21.13;;;;;;;37.45;11.47;101667.41;5040167;28;20394;-56
2022/03/25 09:27:41;;;;;;;23.75;20.65;;;;;;;37.72;10.98;101666.00;5043126;28;20525;-53
2022/03/25 09:30:10;;;;;;;21.25;19.15;;;;;;;38.21;10.80;101664.47;5034855;28;20056;-54
2022/03/25 09:32:38;;;;;;;21.73;19.48;;;;;;;38.57;10.12;101669.59;5048957;28;20056;-55
2022/03/25 09:35:13;;;;;;;21.30;19.20;;;;;;;38.56;10.49;101665.06;5047194;28;20383;-55
2022/03/25 09:37:43;;;;;;;20.58;18.15;;;;;;;39.11;9.94;101668.03;5043697;28;20053;-55
2022/03/25 09:40:16;;;;;;;20.83;18.73;;;;;;;39.44;9.52;101666.56;5039139;28;20496;-51
2022/03/25 09:42:44;;;;;;;21.33;19.17;;;;;;;39.20;9.87;101660.59;5036571;28;20430;-52
2022/03/25 09:45:13;;;;;;;20.83;18.63;;;;;;;39.66;9.35;101669.28;5032606;28;20053;-57
2022/03/25 09:47:41;;;;;;;20.33;18.20;;;;;;;39.96;9.39;101670.31;5048633;28;20056;-54
2022/03/25 09:50:11;;;;;;;20.90;17.85;;;;;;;40.23;9.09;101666.47;5049864;28;20501;-55
2022/03/25 09:52:40;;;;;;;19.42;16.83;;;;;;;39.96;8.78;101668.25;5049288;28;20378;-53
2022/03/25 09:55:08;;;;;;;17.02;15.25;;;;;;;40.55;8.58;101673.63;5049973;28;20080;-57
2022/03/25 09:57:37;;;;;;;;;;;;;;;39.89;8.53;101659.81;5045390;28;20413;-55
2022/03/25 10:00:06;;;;;;;17.88;15.90;;;;;;;40.26;8.57;101668.41;5052130;28;19921;-56
2022/03/25 10:02:34;;;;;;;18.33;16.33;;;;;;;40.98;8.27;101658.88;5051229;28;20045;-54
2022/03/25 10:05:16;;;;;;;18.50;16.60;;;;;;;39.83;9.07;101660.94;5053572;28;20045;-54
2022/03/25 10:07:48;;;;;;;18.27;15.13;;;;;;;40.67;8.08;101662.16;5053277;28;20053;-51
2022/03/25 10:10:17;;;;;;;15.65;13.88;;;;;;;40.98;7.91;101658.88;5053590;28;20056;-56
2022/03/25 10:12:48;;;;;;;16.75;14.85;;;;;;;41.24;7.91;101652.47;5053761;28;20056;-53
2022/03/25 10:15:19;;;;;;;15.20;13.60;;;;;;;40.58;8.40;101660.13;5052475;28;20516;-54
2022/03/25 10:17:54;;;;;;;17.05;13.70;;;;;;;40.85;7.84;101658.34;5053390;28;20053;-56
2022/03/25 10:20:24;;;;;;;15.88;14.18;;;;;;;41.36;7.42;101660.97;5053198;28;20049;-55
2022/03/25 10:23:06;;;;;;;15.27;13.68;;;;;;;41.11;7.97;101664.44;5033511;28;20414;-55
2022/03/25 10:25:39;;;;;;;14.45;12.95;;;;;;;41.34;7.23;101656.94;5034855;28;20053;-53
2022/03/25 10:28:20;;;;;;;14.80;13.18;;;;;;;41.35;7.66;101646.84;5053453;28;20053;-57
2022/03/25 10:30:51;;;;;;;14.80;13.25;;;;;;;41.86;7.48;101648.56;5051483;28;20057;-54
2022/03/25 10:33:27;;;;;;;15.15;13.55;;;;;;;41.96;7.07;101647.13;5052314;28;20072;-52
2022/03/25 10:35:56;;;;;;;15.65;14.02;;;;;;;42.06;6.79;101644.09;5052863;28;20052;-55
2022/03/25 10:38:25;;;;;;;16.15;13.77;;;;;;;42.08;7.08;101641.47;5052044;28;20497;-53
2022/03/25 10:40:54;;;;;;;15.65;13.88;;;;;;;41.72;6.99;101646.47;5052792;28;20409;-52
2022/03/25 10:43:24;;;;;;;19.23;15.07;;;;;;;41.41;7.33;101653.59;5052842;28;20055;-54
2022/03/25 10:45:52;;;;;;;19.85;15.43;;;;;;;41.07;7.16;101647.09;5052433;28;20049;-55
2022/03/25 10:48:21;;;;;;;15.02;13.57;;;;;;;40.87;7.29;101650.69;5052865;28;20056;-50
2022/03/25 10:51:03;;;;;;;15.25;13.65;;;;;;;41.21;7.67;101641.81;5051351;28;20052;-51
2022/03/25 10:54:03;;;;;;;14.50;13.10;;;;;;;41.23;7.63;101640.00;5054381;28;20056;-55
2022/03/25 10:56:43;;;;;;;14.82;13.18;;;;;;;41.44;7.11;101643.81;5051195;28;20060;-55
2022/03/25 10:59:23;;;;;;;14.07;12.65;;;;;;;40.40;7.32;101649.38;5052512;28;20049;-55
2022/03/25 11:01:51;;;;;;;17.52;13.80;;;;;;;40.83;8.01;101640.50;5041936;28;20061;-55
2022/03/25 11:04:20;;;;;;;15.60;13.88;;;;;;;41.06;7.25;101651.31;5041526;28;20386;-55
2022/03/25 11:06:48;;;;;;;;;;;;;;;41.48;7.54;101649.50;5052780;28;20060;-56
2022/03/25 11:09:17;;;;;;;14.20;12.80;;;;;;;41.28;7.97;101641.41;5051709;28;19921;-55
2022/03/25 11:11:45;;;;;;;15.13;13.32;;;;;;;41.42;7.35;101651.50;5036113;28;20049;-55
2022/03/25 11:14:13;;;;;;;14.10;12.68;;;;;;;41.40;7.38;101642.41;5036520;28;20064;-55
2022/03/25 11:16:44;;;;;;;15.07;13.48;;;;;;;41.32;7.72;101639.09;5041900;28;20056;-56
2022/03/25 11:19:13;;;;;;;14.35;11.98;;;;;;;41.49;6.96;101634.34;5050105;28;20056;-54
2022/03/25 11:21:42;;;;;;;16.23;13.23;;;;;;;41.51;6.92;101639.69;5047414;28;20058;-56
2022/03/25 11:24:17;;;;;;;14.10;12.23;;;;;;;41.63;6.84;101629.03;5052040;28;20409;-55
2022/03/25 11:26:48;;;;;;;16.67;12.88;;;;;;;41.60;7.21;101638.81;5050160;28;20057;-56